Time;durP1;ratioP1;P1;durP2;ratioP2;P2;SDS_P1;SDS_P2;PMS_P1;PMS_P2;Temp;Humidity;BMP_temperature;BMP_pressure;BME280_temperature;BME280_humidity;BME280_pressure;Samples;Min_cycle;Max_cycle;Signal;HPM_P1;HPM_P2
2022/07/17 00:00:55;;;;;;;0.10;0.10;;;;;;;25.29;69.46;100343.91;5057346;28;20050;-80
2022/07/17 00:03:21;;;;;;;0.10;0.10;;;;;;;25.28;69.75;100353.72;5057184;28;20021;-82
2022/07/17 00:05:47;;;;;;;0.10;0.10;;;;;;;25.22;69.65;100355.56;5056805;28;20024;-78
2022/07/17 00:08:13;;;;;;;0.10;0.10;;;;;;;25.25;69.69;100351.81;5057027;28;20016;-78
2022/07/17 00:10:50;;;;;;;0.10;0.10;;;;;;;25.20;69.48;100347.47;5075245;28;20036;-80
2022/07/17 00:13:16;;;;;;;0.10;0.10;;;;;;;25.19;70.04;100343.03;5075490;28;20021;-80
2022/07/17 00:15:44;;;;;;;0.10;0.10;;;;;;;25.16;69.88;100346.81;5057086;28;20051;-80
2022/07/17 00:18:09;;;;;;;0.10;0.10;;;;;;;25.15;70.13;100344.41;5057451;28;20114;-79
2022/07/17 00:20:38;;;;;;;0.10;0.10;;;;;;;25.28;69.86;100353.72;5057028;28;20024;-79
2022/07/17 00:23:04;;;;;;;0.10;0.10;;;;;;;25.18;70.40;100346.34;5057088;28;20020;-78
2022/07/17 00:25:29;;;;;;;0.10;0.10;;;;;;;25.01;70.94;100332.22;5056912;28;20024;-79
2022/07/17 00:27:55;;;;;;;0.10;0.10;;;;;;;24.88;71.85;100325.78;5056737;28;20028;-78
2022/07/17 00:30:21;;;;;;;0.10;0.10;;;;;;;25.04;72.47;100339.06;5057051;28;20025;-79
2022/07/17 00:32:49;;;;;;;0.10;0.10;;;;;;;25.10;72.66;100339.31;5057238;28;20020;-77
2022/07/17 00:35:17;;;;;;;0.10;0.10;;;;;;;24.99;72.90;100325.41;5074385;28;20025;-78
2022/07/17 00:37:45;;;;;;;0.10;0.10;;;;;;;25.09;72.98;100341.38;5057138;28;20476;-79
2022/07/17 00:40:18;;;;;;;0.10;0.10;;;;;;;25.02;73.24;100345.19;5074889;28;20078;-78
2022/07/17 00:42:44;;;;;;;0.10;0.10;;;;;;;24.94;73.65;100340.22;5040334;28;20451;-79
2022/07/17 00:45:11;;;;;;;0.10;0.10;;;;;;;24.91;73.80;100341.13;5056610;28;20031;-79
2022/07/17 00:47:52;;;;;;;0.10;0.10;;;;;;;24.83;74.16;100334.88;5074647;28;20463;-78
2022/07/17 00:50:18;;;;;;;0.10;0.10;;;;;;;24.92;74.18;100345.56;5056659;28;20032;-79
2022/07/17 00:52:44;;;;;;;0.10;0.10;;;;;;;24.92;73.75;100337.81;5056587;28;20074;-78
2022/07/17 00:55:12;;;;;;;0.10;0.10;;;;;;;24.94;74.02;100335.31;5056562;28;20025;-79
2022/07/17 00:57:41;;;;;;;0.10;0.10;;;;;;;24.96;73.85;100332.81;5074842;28;20017;-79
2022/07/17 01:00:10;;;;;;;0.10;0.10;;;;;;;24.94;74.08;100338.16;5057203;28;20418;-79
2022/07/17 01:02:37;;;;;;;0.10;0.10;;;;;;;24.95;74.43;100342.59;5074414;28;20047;-79
2022/07/17 01:05:03;;;;;;;0.10;0.10;;;;;;;24.99;74.11;100337.59;5074652;28;20028;-79
2022/07/17 01:07:29;;;;;;;0.10;0.10;;;;;;;24.90;74.81;100336.69;5057121;28;20117;-79
2022/07/17 01:09:55;;;;;;;0.10;0.10;;;;;;;24.99;74.78;100334.75;5056307;28;20016;-78
2022/07/17 01:12:21;;;;;;;0.10;0.10;;;;;;;24.89;74.82;100333.06;5057029;28;20036;-78
2022/07/17 01:14:48;;;;;;;0.10;0.10;;;;;;;24.86;75.63;100339.66;5056371;28;20024;-78
2022/07/17 01:17:15;;;;;;;0.10;0.10;;;;;;;24.83;75.92;100334.88;5055980;28;20016;-79
2022/07/17 01:19:43;;;;;;;0.10;0.10;;;;;;;24.81;75.48;100341.00;5075459;28;20103;-79
2022/07/17 01:22:09;;;;;;;0.10;0.10;;;;;;;24.80;75.94;100339.44;5070322;28;20024;-79
2022/07/17 01:24:39;;;;;;;0.10;0.10;;;;;;;24.76;76.10;100335.09;5059270;28;20020;-79
2022/07/17 01:27:04;;;;;;;0.10;0.10;;;;;;;24.71;76.38;100341.38;5056759;28;20411;-78
2022/07/17 01:29:30;;;;;;;0.10;0.10;;;;;;;24.71;76.45;100338.53;5073648;28;20024;-81
2022/07/17 01:31:55;;;;;;;0.10;0.10;;;;;;;24.65;76.78;100346.84;5055381;28;20044;-81
2022/07/17 01:34:21;;;;;;;0.10;0.10;;;;;;;24.67;76.92;100337.88;5055705;28;20149;-79
2022/07/17 01:36:49;;;;;;;0.10;0.10;;;;;;;24.66;76.92;100336.25;5056279;28;20064;-79
2022/07/17 01:39:15;;;;;;;0.10;0.10;;;;;;;24.59;77.21;100333.66;5073966;28;20025;-82
2022/07/17 01:41:40;;;;;;;0.10;0.10;;;;;;;24.56;77.67;100339.00;5055849;28;20352;-79
2022/07/17 01:44:07;;;;;;;0.10;0.10;;;;;;;24.57;77.56;100336.97;5056582;28;20028;-78
2022/07/17 01:46:33;;;;;;;0.10;0.10;;;;;;;24.49;78.04;100319.31;5073613;28;20100;-78
2022/07/17 01:49:00;;;;;;;0.10;0.10;;;;;;;24.56;78.23;100336.16;5056124;28;20052;-79
2022/07/17 01:51:27;;;;;;;0.10;0.10;;;;;;;24.56;78.21;100329.69;5056379;28;20437;-78
2022/07/17 01:53:52;;;;;;;0.10;0.10;;;;;;;24.50;78.45;100328.63;5074031;28;20017;-79
2022/07/17 01:56:18;;;;;;;0.10;0.10;;;;;;;24.51;79.08;100333.09;5056179;28;20044;-78
2022/07/17 01:58:43;;;;;;;0.10;0.10;;;;;;;24.56;78.59;100327.63;5056142;28;20020;-79
2022/07/17 02:01:12;;;;;;;0.10;0.10;;;;;;;24.60;78.29;100329.53;5055945;28;20064;-80
2022/07/17 02:03:38;;;;;;;0.10;0.10;;;;;;;24.44;78.08;100299.19;5055816;28;20021;-80
2022/07/17 02:06:06;;;;;;;0.10;0.10;;;;;;;24.60;77.71;100333.19;5055866;28;20025;-80
2022/07/17 02:08:31;;;;;;;0.10;0.10;;;;;;;24.59;77.55;100319.44;5073914;28;20086;-80
2022/07/17 02:10:57;;;;;;;0.10;0.10;;;;;;;24.65;77.57;100328.97;5056299;28;20042;-79
2022/07/17 02:13:22;;;;;;;0.10;0.10;;;;;;;24.67;76.75;100326.50;5055740;28;20469;-80
2022/07/17 02:15:48;;;;;;;0.10;0.10;;;;;;;24.74;76.70;100327.03;5055741;28;20028;-79
2022/07/17 02:18:13;;;;;;;0.10;0.10;;;;;;;24.70;76.40;100322.72;5055759;28;20020;-80
2022/07/17 02:20:41;;;;;;;0.10;0.10;;;;;;;24.56;76.58;100306.94;5073855;28;20056;-80
2022/07/17 02:23:10;;;;;;;0.10;0.10;;;;;;;24.53;76.09;100311.47;5055825;28;20012;-80
2022/07/17 02:25:37;;;;;;;0.10;0.10;;;;;;;24.53;76.70;100322.84;5055957;28;20086;-78
2022/07/17 02:28:03;;;;;;;0.10;0.10;;;;;;;24.41;77.20;100323.66;5057116;28;20021;-79
2022/07/17 02:30:31;;;;;;;0.10;0.10;;;;;;;24.38;76.99;100329.44;5059770;28;20073;-80
2022/07/17 02:32:56;;;;;;;0.10;0.10;;;;;;;24.37;77.37;100325.81;5060039;28;20079;-80
2022/07/17 02:35:25;;;;;;;0.10;0.10;;;;;;;24.42;77.00;100327.28;5060052;28;20090;-80
2022/07/17 02:37:50;;;;;;;0.20;0.20;;;;;;;24.44;76.78;100322.72;5059464;28;20359;-79
2022/07/17 02:40:16;;;;;;;0.10;0.10;;;;;;;24.47;76.37;100333.19;5059304;28;20031;-79
2022/07/17 02:42:44;;;;;;;0.10;0.10;;;;;;;24.48;76.05;100331.16;5059231;28;20031;-80
2022/07/17 02:45:12;;;;;;;0.10;0.10;;;;;;;24.46;75.71;100323.06;5059774;28;20036;-78
2022/07/17 02:47:38;;;;;;;0.10;0.10;;;;;;;24.44;75.57;100313.41;5059477;28;20028;-78
2022/07/17 02:50:09;;;;;;;0.10;0.10;;;;;;;24.48;75.29;100323.41;5059669;28;20091;-79
2022/07/17 02:52:35;;;;;;;0.10;0.10;;;;;;;24.42;74.58;100311.00;5059468;28;20028;-79
2022/07/17 02:55:00;;;;;;;0.10;0.10;;;;;;;24.44;74.22;100319.88;5059332;28;20058;-79
2022/07/17 02:57:26;;;;;;;0.10;0.10;;;;;;;24.43;74.63;100323.97;5058878;28;20111;-79
2022/07/17 02:59:52;;;;;;;0.10;0.10;;;;;;;24.42;74.38;100330.91;5059763;28;20082;-79
2022/07/17 03:02:18;;;;;;;0.10;0.10;;;;;;;24.43;73.50;100321.13;5058937;28;20044;-79
2022/07/17 03:04:45;;;;;;;0.10;0.10;;;;;;;24.39;72.89;100328.97;5059031;28;20020;-79
2022/07/17 03:07:11;;;;;;;0.10;0.10;;;;;;;24.35;73.03;100325.47;5077252;28;20110;-80
2022/07/17 03:09:38;;;;;;;0.10;0.10;;;;;;;24.29;72.67;100325.22;5077378;28;20103;-79
2022/07/17 03:12:04;;;;;;;0.10;0.10;;;;;;;24.21;72.72;100328.72;5062330;28;20025;-79
2022/07/17 03:14:32;;;;;;;0.10;0.10;;;;;;;24.18;73.36;100321.91;5072456;28;20028;-78
2022/07/17 03:16:58;;;;;;;0.10;0.10;;;;;;;24.14;73.53;100320.41;5058606;28;20020;-79
2022/07/17 03:19:26;;;;;;;0.10;0.10;;;;;;;24.11;73.10;100319.25;5058959;28;20074;-79
2022/07/17 03:21:51;;;;;;;0.10;0.10;;;;;;;24.15;72.88;100327.69;5058484;28;20115;-79
2022/07/17 03:24:22;;;;;;;0.10;0.10;;;;;;;24.19;72.45;100326.34;5058846;28;20082;-79
2022/07/17 03:26:48;;;;;;;0.10;0.10;;;;;;;24.13;72.61;100333.84;5058506;28;20355;-79
2022/07/17 03:29:17;;;;;;;0.10;0.10;;;;;;;24.13;72.02;100333.00;5058162;28;20028;-79
2022/07/17 03:31:47;;;;;;;0.10;0.10;;;;;;;24.15;72.04;100339.06;5054404;28;20041;-80
2022/07/17 03:34:15;;;;;;;0.10;0.10;;;;;;;24.15;72.16;100336.22;5056364;28;20017;-79
2022/07/17 03:36:40;;;;;;;0.10;0.10;;;;;;;24.12;71.80;100337.09;5039052;28;20025;-79
2022/07/17 03:39:06;;;;;;;0.10;0.10;;;;;;;24.23;71.68;100334.72;5053811;28;20371;-79
2022/07/17 03:41:32;;;;;;;0.10;0.10;;;;;;;24.21;71.59;100340.09;5037989;28;20028;-79
2022/07/17 03:44:00;;;;;;;0.10;0.10;;;;;;;24.22;71.60;100336.78;5054687;28;20082;-79
2022/07/17 03:46:28;;;;;;;0.10;0.10;;;;;;;24.26;70.54;100345.22;5054471;28;20031;-80
2022/07/17 03:48:57;;;;;;;0.10;0.10;;;;;;;24.24;71.27;100342.84;5056266;28;20052;-79
2022/07/17 03:51:24;;;;;;;0.10;0.10;;;;;;;24.26;71.27;100339.53;5054550;28;20032;-79
2022/07/17 03:53:50;;;;;;;0.10;0.10;;;;;;;24.27;71.23;100341.91;5054619;28;20021;-80
2022/07/17 03:56:18;;;;;;;0.10;0.10;;;;;;;24.30;70.42;100340.22;5054827;28;20029;-79
2022/07/17 03:58:44;;;;;;;0.10;0.10;;;;;;;24.18;70.61;100321.09;5054884;28;20347;-78
2022/07/17 04:01:10;;;;;;;0.10;0.10;;;;;;;24.34;70.98;100342.94;5054328;28;20116;-80
2022/07/17 04:03:38;;;;;;;0.10;0.10;;;;;;;24.37;70.43;100342.88;5055048;28;20025;-79
2022/07/17 04:06:04;;;;;;;0.10;0.10;;;;;;;24.40;70.36;100341.16;5054639;28;20142;-79
2022/07/17 04:08:30;;;;;;;0.10;0.10;;;;;;;24.27;70.38;100318.38;5054264;28;20050;-79
2022/07/17 04:10:58;;;;;;;0.10;0.10;;;;;;;24.48;69.78;100346.16;5054678;28;20025;-79
2022/07/17 04:13:23;;;;;;;0.10;0.10;;;;;;;24.45;69.41;100338.56;5054674;28;20055;-79
2022/07/17 04:15:49;;;;;;;0.10;0.10;;;;;;;24.64;69.01;100350.16;5054419;28;20036;-78
2022/07/17 04:18:20;;;;;;;0.10;0.10;;;;;;;24.85;68.32;100343.75;5054142;28;20029;-79
2022/07/17 04:20:51;;;;;;;0.10;0.10;;;;;;;25.08;67.00;100340.53;5054191;28;20477;-79
2022/07/17 04:23:17;;;;;;;0.10;0.10;;;;;;;25.36;66.16;100349.38;5037599;28;20027;-78
2022/07/17 04:25:44;;;;;;;0.10;0.10;;;;;;;25.62;64.96;100352.91;5053902;28;20029;-78
2022/07/17 04:28:12;;;;;;;0.10;0.10;;;;;;;25.94;63.79;100348.91;5037283;28;20479;-79
2022/07/17 04:30:40;;;;;;;0.10;0.10;;;;;;;26.25;62.18;100350.97;5056891;28;20049;-79
2022/07/17 04:33:10;;;;;;;0.10;0.10;;;;;;;26.57;60.80;100356.22;5057499;28;20078;-78
2022/07/17 04:35:39;;;;;;;0.10;0.10;;;;;;;26.80;59.87;100351.25;5074825;28;20020;-78
2022/07/17 04:38:05;;;;;;;0.10;0.10;;;;;;;27.05;58.98;100350.97;5075047;28;20031;-78
2022/07/17 04:40:32;;;;;;;0.10;0.10;;;;;;;27.34;58.11;100349.81;5057295;28;20086;-79
2022/07/17 04:42:57;;;;;;;0.10;0.10;;;;;;;27.62;57.27;100353.44;5056718;28;20073;-77
2022/07/17 04:45:23;;;;;;;0.10;0.10;;;;;;;27.87;56.21;100358.88;5057047;28;20111;-78
2022/07/17 04:47:48;;;;;;;0.10;0.10;;;;;;;28.13;55.67;100347.88;5057056;28;20471;-78
2022/07/17 04:50:14;;;;;;;0.10;0.10;;;;;;;28.39;55.14;100354.03;5056671;28;20447;-78
2022/07/17 04:52:42;;;;;;;0.10;0.10;;;;;;;28.82;54.35;100362.59;5056476;28;20059;-77
2022/07/17 04:55:07;;;;;;;0.10;0.10;;;;;;;29.13;52.83;100357.31;5056314;28;20059;-77
2022/07/17 04:57:33;;;;;;;0.10;0.10;;;;;;;29.42;52.19;100362.38;5056383;28;20044;-77
2022/07/17 05:00:01;;;;;;;0.10;0.10;;;;;;;29.72;51.22;100365.34;5056504;28;20020;-77
2022/07/17 05:02:29;;;;;;;0.10;0.10;;;;;;;29.75;50.12;100345.06;5074978;28;20052;-77
2022/07/17 05:04:54;;;;;;;0.10;0.10;;;;;;;29.87;49.87;100366.16;5059242;28;20439;-78
2022/07/17 05:07:20;;;;;;;0.10;0.10;;;;;;;30.29;48.61;100368.00;5058628;28;20070;-77
2022/07/17 05:09:45;;;;;;;0.10;0.10;;;;;;;30.70;47.65;100371.84;5056451;28;20123;-76
2022/07/17 05:12:11;;;;;;;0.10;0.10;;;;;;;30.68;46.99;100370.69;5055959;28;20021;-76
2022/07/17 05:14:36;;;;;;;0.10;0.10;;;;;;;30.85;47.03;100371.81;5055806;28;20093;-76
2022/07/17 05:17:04;;;;;;;0.10;0.10;;;;;;;30.59;47.73;100374.50;5055028;28;20020;-75
2022/07/17 05:19:30;;;;;;;0.10;0.10;;;;;;;30.44;48.39;100367.97;5055586;28;20028;-75
2022/07/17 05:21:58;;;;;;;0.10;0.10;;;;;;;30.57;48.04;100359.03;5055856;28;20071;-76
2022/07/17 05:24:26;;;;;;;0.10;0.10;;;;;;;30.40;47.13;100368.16;5056171;28;20052;-76
2022/07/17 05:26:51;;;;;;;0.10;0.10;;;;;;;30.90;46.87;100370.31;5055668;28;20028;-76
2022/07/17 05:29:17;;;;;;;0.10;0.10;;;;;;;31.44;45.88;100362.19;5055922;28;20115;-77
2022/07/17 05:31:45;;;;;;;0.10;0.10;;;;;;;31.45;46.66;100370.31;5055391;28;20067;-75
2022/07/17 05:34:14;;;;;;;0.10;0.10;;;;;;;31.32;47.39;100366.19;5055563;28;20031;-74
2022/07/17 05:36:40;;;;;;;0.10;0.10;;;;;;;31.62;46.40;100364.75;5055915;28;20031;-75
2022/07/17 05:39:05;;;;;;;0.10;0.10;;;;;;;31.79;46.52;100371.47;5073556;28;20032;-76
2022/07/17 05:41:31;;;;;;;0.10;0.10;;;;;;;31.47;46.86;100361.16;5055605;28;20025;-76
2022/07/17 05:43:58;;;;;;;0.10;0.10;;;;;;;31.14;47.24;100368.03;5055412;28;20025;-76
2022/07/17 05:46:24;;;;;;;0.10;0.10;;;;;;;31.06;47.74;100375.50;5073815;28;20024;-76
2022/07/17 05:48:52;;;;;;;0.10;0.10;;;;;;;30.39;49.15;100368.69;5072476;28;20039;-74
2022/07/17 05:51:18;;;;;;;0.10;0.10;;;;;;;31.02;48.27;100366.31;5055472;28;20055;-75
2022/07/17 05:53:47;;;;;;;0.10;0.10;;;;;;;31.46;46.22;100368.22;5055346;28;20055;-75
2022/07/17 05:56:12;;;;;;;0.10;0.10;;;;;;;31.19;47.57;100375.94;5055769;28;20103;-76
2022/07/17 05:58:40;;;;;;;0.10;0.10;;;;;;;31.55;47.74;100374.59;5055440;28;20115;-76
2022/07/17 06:01:08;;;;;;;0.10;0.10;;;;;;;31.70;46.53;100374.53;5055411;28;20462;-75
2022/07/17 06:03:33;;;;;;;0.10;0.10;;;;;;;32.03;46.47;100359.75;5057820;28;20127;-75
2022/07/17 06:06:04;;;;;;;0.10;0.10;;;;;;;31.45;48.39;100381.00;5059087;28;20020;-76
2022/07/17 06:08:30;;;;;;;0.10;0.10;;;;;;;31.69;47.77;100381.56;5059665;28;20020;-76
2022/07/17 06:10:55;;;;;;;0.10;0.10;;;;;;;32.26;46.81;100378.00;5059493;28;20450;-75
2022/07/17 06:13:23;;;;;;;0.10;0.10;;;;;;;31.80;47.54;100373.09;5059244;28;20028;-76
2022/07/17 06:15:49;;;;;;;0.10;0.10;;;;;;;31.35;49.49;100382.44;5077514;28;20032;-76
2022/07/17 06:18:14;;;;;;;0.10;0.10;;;;;;;30.32;51.99;100377.69;5059336;28;20078;-75
2022/07/17 06:20:40;;;;;;;0.10;0.10;;;;;;;30.29;52.85;100373.72;5059572;28;20025;-75
2022/07/17 06:23:05;;;;;;;0.10;0.10;;;;;;;30.36;52.69;100378.25;5059288;28;20043;-76
2022/07/17 06:25:34;;;;;;;0.10;0.10;;;;;;;30.73;51.22;100379.44;5058977;28;20039;-76
2022/07/17 06:27:59;;;;;;;0.10;0.10;;;;;;;30.68;51.17;100377.25;5059139;28;20347;-75
2022/07/17 06:30:25;;;;;;;0.10;0.10;;;;;;;31.01;51.08;100379.09;5058739;28;20020;-75
2022/07/17 06:32:52;;;;;;;0.10;0.10;;;;;;;31.62;48.92;100361.09;5058919;28;20032;-75
2022/07/17 06:35:18;;;;;;;0.10;0.10;;;;;;;31.30;50.01;100381.88;5058902;28;20040;-76
2022/07/17 06:37:46;;;;;;;0.10;0.10;;;;;;;31.57;49.68;100376.97;5059369;28;20021;-76
2022/07/17 06:40:17;;;;;;;0.10;0.10;;;;;;;31.68;48.89;100382.84;5059000;28;20055;-75
2022/07/17 06:42:43;;;;;;;0.10;0.10;;;;;;;31.73;49.22;100385.00;5059297;28;20466;-75
2022/07/17 06:45:09;;;;;;;0.10;0.10;;;;;;;31.70;48.68;100386.03;5058725;28;20027;-76
2022/07/17 06:47:34;;;;;;;0.10;0.10;;;;;;;31.86;48.84;100386.75;5076407;28;20029;-75
2022/07/17 06:50:00;;;;;;;0.10;0.10;;;;;;;32.36;47.66;100383.63;5058551;28;20032;-75
2022/07/17 06:52:28;;;;;;;0.10;0.10;;;;;;;32.42;48.16;100381.56;5059374;28;20116;-75
2022/07/17 06:54:53;;;;;;;0.10;0.10;;;;;;;32.43;46.47;100378.19;5058500;28;20028;-75
2022/07/17 06:57:21;;;;;;;0.10;0.10;;;;;;;32.66;46.36;100379.16;5058442;28;20073;-76
2022/07/17 06:59:47;;;;;;;0.10;0.10;;;;;;;32.30;46.59;100374.91;5058808;28;20032;-74
2022/07/17 07:02:15;;;;;;;0.10;0.10;;;;;;;31.86;46.98;100381.00;5058301;28;20454;-77
2022/07/17 07:04:43;;;;;;;0.10;0.10;;;;;;;32.06;46.82;100360.78;5058293;28;20438;-76
2022/07/17 07:07:11;;;;;;;0.10;0.10;;;;;;;32.93;43.69;100372.06;5057983;28;20031;-76
2022/07/17 07:09:37;;;;;;;0.10;0.10;;;;;;;33.19;43.77;100379.81;5058271;28;20028;-78
2022/07/17 07:12:07;;;;;;;0.10;0.10;;;;;;;33.42;43.23;100375.75;5058127;28;20028;-77
2022/07/17 07:14:35;;;;;;;0.10;0.10;;;;;;;33.58;42.40;100385.78;5076304;28;20032;-77
2022/07/17 07:17:10;;;;;;;0.10;0.10;;;;;;;34.06;41.75;100370.44;5076034;28;20442;-77
2022/07/17 07:19:38;;;;;;;0.10;0.10;;;;;;;34.15;40.80;100373.09;5058140;28;20028;-77
2022/07/17 07:22:06;;;;;;;0.10;0.10;;;;;;;35.31;39.14;100376.41;5058387;28;20043;-77
2022/07/17 07:24:31;;;;;;;0.10;0.10;;;;;;;35.95;37.97;100382.22;5058402;28;20024;-77
2022/07/17 07:26:59;;;;;;;0.10;0.10;;;;;;;35.29;38.64;100373.28;5058254;28;20092;-77
2022/07/17 07:29:30;;;;;;;0.10;0.10;;;;;;;35.91;37.10;100379.59;5057419;28;20020;-78
2022/07/17 07:32:01;;;;;;;0.10;0.10;;;;;;;35.11;38.36;100376.75;5056862;28;20044;-75
2022/07/17 07:34:29;;;;;;;0.10;0.10;;;;;;;35.00;38.49;100377.56;5057228;28;20035;-74
2022/07/17 07:36:54;;;;;;;0.10;0.10;;;;;;;35.08;38.74;100389.38;5075216;28;20025;-75
2022/07/17 07:39:20;;;;;;;0.10;0.10;;;;;;;35.20;38.04;100390.13;5057663;28;20116;-75
2022/07/17 07:41:48;;;;;;;0.10;0.10;;;;;;;35.28;38.65;100380.38;5057469;28;20024;-76
2022/07/17 07:44:13;;;;;;;0.10;0.10;;;;;;;35.00;38.48;100392.03;5074806;28;20091;-74
2022/07/17 07:46:39;;;;;;;0.10;0.10;;;;;;;34.44;39.54;100391.22;5057159;28;20056;-78
2022/07/17 07:49:04;;;;;;;0.10;0.10;;;;;;;34.88;39.07;100388.31;5057655;28;20025;-78
2022/07/17 07:51:30;;;;;;;0.10;0.10;;;;;;;35.08;38.05;100386.47;5057936;28;20048;-77
2022/07/17 07:53:58;;;;;;;0.10;0.10;;;;;;;35.20;37.48;100393.81;5057954;28;20336;-77
2022/07/17 07:56:24;;;;;;;0.10;0.10;;;;;;;35.34;37.52;100392.72;5057616;28;20024;-78
2022/07/17 07:58:49;;;;;;;0.10;0.10;;;;;;;35.24;37.95;100394.31;5057026;28;20406;-79
2022/07/17 08:01:18;;;;;;;0.10;0.10;;;;;;;36.07;36.17;100398.22;5057180;28;20119;-78
2022/07/17 08:03:43;;;;;;;0.10;0.10;;;;;;;36.49;34.51;100403.97;5075359;28;20028;-79
2022/07/17 08:06:14;;;;;;;0.10;0.10;;;;;;;36.63;34.12;100400.69;5057608;28;20403;-79
2022/07/17 08:08:40;;;;;;;0.10;0.10;;;;;;;37.66;32.06;100399.09;5057291;28;20477;-80
2022/07/17 08:11:05;;;;;;;0.10;0.10;;;;;;;37.39;33.31;100398.09;5057246;28;20020;-79
2022/07/17 08:13:31;;;;;;;0.10;0.10;;;;;;;36.44;34.84;100403.50;5057066;28;20512;-79
2022/07/17 08:15:58;;;;;;;0.10;0.10;;;;;;;36.50;34.66;100399.78;5056495;28;20048;-80
2022/07/17 08:18:26;;;;;;;0.10;0.10;;;;;;;36.67;34.33;100403.31;5074462;28;20043;-74
2022/07/17 08:20:53;;;;;;;0.10;0.10;;;;;;;36.12;35.56;100408.97;5056572;28;20055;-74
2022/07/17 08:23:19;;;;;;;0.10;0.10;;;;;;;36.36;35.13;100395.88;5056479;28;20036;-74
2022/07/17 08:25:46;;;;;;;0.10;0.10;;;;;;;35.83;36.17;100409.63;5055993;28;20040;-74
2022/07/17 08:28:12;;;;;;;0.10;0.10;;;;;;;37.10;34.59;100393.94;5056443;28;20024;-74
2022/07/17 08:30:37;;;;;;;0.10;0.10;;;;;;;37.63;33.43;100400.19;5054679;28;20051;-79
2022/07/17 08:33:05;;;;;;;0.10;0.10;;;;;;;38.15;32.45;100404.78;5040491;28;20082;-79
2022/07/17 08:35:35;;;;;;;0.10;0.10;;;;;;;38.95;31.66;100411.69;5057573;28;20024;-78
2022/07/17 08:38:00;;;;;;;0.10;0.10;;;;;;;38.76;32.09;100400.13;5056789;28;20046;-78
2022/07/17 08:40:28;;;;;;;0.10;0.10;;;;;;;39.19;30.43;100402.00;5056962;28;20447;-78
2022/07/17 08:42:55;;;;;;;0.05;0.05;;;;;;;39.63;30.22;100400.31;5074381;28;20024;-79
2022/07/17 08:45:21;;;;;;;0.10;0.10;;;;;;;39.08;30.67;100405.09;5057041;28;20055;-77
2022/07/17 08:47:49;;;;;;;0.10;0.10;;;;;;;38.15;32.32;100408.47;5068137;28;20028;-76
2022/07/17 08:50:15;;;;;;;0.10;0.10;;;;;;;37.83;32.81;100402.59;5073678;28;20024;-74
2022/07/17 08:52:42;;;;;;;0.10;0.10;;;;;;;37.72;33.26;100408.53;5055861;28;20085;-74
2022/07/17 08:55:12;;;;;;;0.10;0.10;;;;;;;37.96;33.13;100407.69;5055970;28;20027;-74
2022/07/17 08:57:39;;;;;;;0.10;0.10;;;;;;;36.91;34.40;100414.94;5073340;28;20478;-74
2022/07/17 09:00:06;;;;;;;0.10;0.10;;;;;;;36.73;34.59;100406.94;5055546;28;20455;-74
2022/07/17 09:02:35;;;;;;;0.10;0.10;;;;;;;36.44;35.30;100406.41;5073098;28;20098;-74
2022/07/17 09:05:01;;;;;;;0.10;0.10;;;;;;;37.00;34.55;100396.41;5055750;28;20032;-74
2022/07/17 09:07:30;;;;;;;0.10;0.10;;;;;;;36.52;35.63;100406.59;5055636;28;20028;-75
2022/07/17 09:09:56;;;;;;;0.10;0.10;;;;;;;37.68;33.49;100400.13;5056297;28;20051;-75
2022/07/17 09:12:26;;;;;;;0.10;0.10;;;;;;;38.03;33.36;100406.25;5056149;28;20451;-77
2022/07/17 09:14:52;;;;;;;0.10;0.10;;;;;;;37.46;33.49;100397.53;5073830;28;20024;-77
2022/07/17 09:17:18;;;;;;;0.10;0.10;;;;;;;37.93;32.90;100403.78;5055948;28;20031;-77
2022/07/17 09:19:47;;;;;;;0.10;0.10;;;;;;;38.88;31.48;100401.47;5056199;28;20050;-78
2022/07/17 09:22:17;;;;;;;0.10;0.10;;;;;;;39.28;31.30;100410.28;5056112;28;20024;-77
2022/07/17 09:24:55;;;;;;;0.10;0.10;;;;;;;38.27;32.30;100409.06;5055938;28;20494;-75
2022/07/17 09:27:23;;;;;;;0.10;0.10;;;;;;;37.89;32.42;100382.19;5073507;28;20021;-74
2022/07/17 09:30:17;;;;;;;0.10;0.10;;;;;;;38.41;32.60;100407.06;5055432;28;20116;-76
2022/07/17 09:32:45;;;;;;;0.10;0.10;;;;;;;37.05;35.60;100392.66;5070464;28;20470;-75
2022/07/17 09:35:11;;;;;;;0.10;0.10;;;;;;;37.70;35.63;100408.28;5055226;28;20020;-75
2022/07/17 09:37:38;;;;;;;0.10;0.10;;;;;;;37.68;36.00;100403.03;5053987;28;20025;-75
2022/07/17 09:43:01;;;;;;;0.10;0.10;;;;;;;37.18;37.83;100407.31;5073623;28;20034;-75
2022/07/17 09:45:27;;;;;;;0.10;0.10;;;;;;;37.04;38.21;100408.50;5055401;28;20036;-75
2022/07/17 09:47:53;;;;;;;0.10;0.10;;;;;;;37.59;36.60;100411.31;5055136;28;20376;-75
2022/07/17 09:50:19;;;;;;;0.10;0.10;;;;;;;38.41;35.00;100410.75;5054476;28;20033;-75
2022/07/17 09:52:46;;;;;;;0.10;0.10;;;;;;;39.64;33.57;100407.72;5054699;28;20028;-75
2022/07/17 09:55:12;;;;;;;0.10;0.10;;;;;;;39.68;33.45;100404.44;5073128;28;20060;-75
2022/07/17 09:57:43;;;;;;;0.10;0.10;;;;;;;39.68;33.40;100402.31;5055112;28;20111;-75
2022/07/17 10:00:12;;;;;;;0.10;0.10;;;;;;;39.56;33.20;100395.94;5055055;28;20481;-75
2022/07/17 10:02:45;;;;;;;0.10;0.10;;;;;;;39.97;32.13;100399.56;5054951;28;20108;-75
2022/07/17 10:05:12;;;;;;;0.10;0.10;;;;;;;40.38;32.48;100404.72;5055180;28;20350;-75
2022/07/17 10:07:42;;;;;;;0.10;0.10;;;;;;;40.80;31.57;100410.53;5072898;28;20028;-75
2022/07/17 10:10:09;;;;;;;0.10;0.10;;;;;;;40.87;31.83;100397.41;5054832;28;20020;-75
2022/07/17 10:12:38;;;;;;;0.10;0.10;;;;;;;39.88;33.39;100397.91;5072819;28;20032;-75
2022/07/17 10:15:04;;;;;;;0.10;0.10;;;;;;;40.41;32.33;100400.66;5054658;28;20028;-75
2022/07/17 10:17:30;;;;;;;0.10;0.10;;;;;;;40.56;31.94;100397.13;5055482;28;20119;-74
2022/07/17 10:19:56;;;;;;;0.10;0.10;;;;;;;40.40;32.61;100399.09;5055584;28;20115;-75
2022/07/17 10:22:23;;;;;;;0.10;0.10;;;;;;;40.28;32.78;100394.91;5055286;28;20029;-75
2022/07/17 10:24:54;;;;;;;0.10;0.10;;;;;;;40.12;32.20;100376.47;5055513;28;20016;-75
2022/07/17 10:27:23;;;;;;;0.10;0.10;;;;;;;39.60;34.13;100389.78;5055159;28;20482;-74
2022/07/17 10:30:10;;;;;;;0.10;0.10;;;;;;;39.96;32.83;100395.88;5055278;28;20185;-74
2022/07/17 10:32:37;;;;;;;0.10;0.10;;;;;;;39.34;34.04;100390.56;5050845;28;20037;-74
2022/07/17 10:35:03;;;;;;;0.10;0.10;;;;;;;38.65;35.10;100368.31;5051484;28;20120;-75
2022/07/17 10:37:35;;;;;;;0.10;0.10;;;;;;;39.35;34.01;100386.31;5051487;28;20025;-75
2022/07/17 10:40:20;;;;;;;0.10;0.10;;;;;;;40.03;33.02;100386.44;5052011;28;20032;-75
2022/07/17 10:42:50;;;;;;;0.10;0.10;;;;;;;39.45;32.97;100384.53;5051830;28;20021;-75
2022/07/17 10:45:23;;;;;;;0.10;0.10;;;;;;;38.77;34.14;100384.25;5052225;28;20029;-75
2022/07/17 10:47:53;;;;;;;0.10;0.10;;;;;;;38.08;34.75;100382.16;5051986;28;20029;-75
2022/07/17 10:50:26;;;;;;;0.10;0.10;;;;;;;38.37;34.48;100368.81;5054791;28;20013;-75
2022/07/17 10:53:00;;;;;;;0.10;0.10;;;;;;;38.81;34.44;100378.88;5056147;28;20024;-75
2022/07/17 10:55:26;;;;;;;0.10;0.10;;;;;;;38.90;33.85;100369.72;5055584;28;20017;-75
2022/07/17 10:57:52;;;;;;;0.10;0.10;;;;;;;38.72;34.21;100376.38;5054932;28;20466;-75
2022/07/17 11:00:18;;;;;;;0.10;0.10;;;;;;;38.18;34.97;100371.72;5054913;28;20025;-75
2022/07/17 11:02:44;;;;;;;0.10;0.10;;;;;;;38.30;34.35;100363.63;5054912;28;20036;-75
2022/07/17 11:05:14;;;;;;;0.10;0.10;;;;;;;37.53;35.82;100364.19;5055196;28;20289;-75
2022/07/17 11:07:54;;;;;;;0.10;0.10;;;;;;;37.71;35.75;100363.41;5056392;28;20025;-76
2022/07/17 11:10:22;;;;;;;0.10;0.10;;;;;;;37.12;36.99;100362.28;5056067;28;20025;-76
2022/07/17 11:12:51;;;;;;;0.10;0.10;;;;;;;37.21;35.31;100359.00;5055001;28;20470;-75
2022/07/17 11:15:17;;;;;;;0.10;0.10;;;;;;;37.67;34.59;100360.81;5054974;28;20459;-75
2022/07/17 11:17:47;;;;;;;0.10;0.10;;;;;;;37.03;35.67;100365.56;5054649;28;20021;-75
2022/07/17 11:20:15;;;;;;;0.10;0.10;;;;;;;36.88;36.18;100363.84;5055320;28;20110;-76
2022/07/17 11:22:44;;;;;;;0.10;0.10;;;;;;;37.04;35.87;100367.13;5055690;28;20024;-76
2022/07/17 11:25:11;;;;;;;0.10;0.10;;;;;;;36.76;36.05;100364.50;5054478;28;20031;-75
2022/07/17 11:27:38;;;;;;;0.10;0.10;;;;;;;36.81;36.35;100366.53;5056185;28;20025;-74